createdAt,value
2019-03-23T00:00:16.072Z,99.90
2019-03-23T00:02:45.711Z,99.90
2019-03-23T00:05:16.103Z,99.90
2019-03-23T00:07:46.652Z,99.90
2019-03-23T00:10:16.470Z,99.90
2019-03-23T00:12:45.946Z,99.90
2019-03-23T00:15:16.433Z,99.90
2019-03-23T00:17:46.059Z,99.90
2019-03-23T00:20:15.675Z,99.90
2019-03-23T00:22:45.719Z,99.90
2019-03-23T00:25:15.508Z,99.90
2019-03-23T00:27:45.437Z,99.90
2019-03-23T00:30:15.235Z,99.90
2019-03-23T00:32:45.230Z,99.90
2019-03-23T00:35:14.783Z,99.90
2019-03-23T00:37:44.319Z,99.90
2019-03-23T00:40:14.508Z,99.90
2019-03-23T00:42:44.319Z,99.90
2019-03-23T00:45:14.016Z,99.90
2019-03-23T00:47:43.750Z,99.90
2019-03-23T00:50:13.746Z,99.90
2019-03-23T00:52:43.476Z,99.90
2019-03-23T00:55:13.154Z,99.90
2019-03-23T00:57:43.118Z,99.90
2019-03-23T01:00:13.460Z,99.90
2019-03-23T01:02:43.216Z,99.90
2019-03-23T01:05:13.202Z,99.90
2019-03-23T01:07:43.002Z,99.90
2019-03-23T01:10:13.670Z,99.90
2019-03-23T01:12:43.755Z,99.90
2019-03-23T01:15:13.957Z,99.90
2019-03-23T01:17:43.960Z,99.90
2019-03-23T01:20:13.578Z,99.90
2019-03-23T01:22:43.317Z,99.90
2019-03-23T01:25:12.934Z,99.90
2019-03-23T01:27:42.930Z,99.90
2019-03-23T01:30:12.799Z,99.90
2019-03-23T01:32:42.655Z,99.90
2019-03-23T01:35:13.200Z,99.90
2019-03-23T01:37:42.831Z,99.90
2019-03-23T01:40:12.394Z,99.90
2019-03-23T01:42:42.648Z,99.90
2019-03-23T01:45:12.598Z,99.90
2019-03-23T01:47:42.399Z,99.90
2019-03-23T01:50:12.151Z,99.90
2019-03-23T01:52:41.883Z,99.90
2019-03-23T01:55:12.886Z,99.90
2019-03-23T01:57:42.518Z,99.90
2019-03-23T02:00:12.320Z,99.90
2019-03-23T02:02:41.774Z,99.90
2019-03-23T02:05:12.111Z,99.90
2019-03-23T02:07:41.554Z,99.90
2019-03-23T02:10:11.723Z,99.90
2019-03-23T02:12:41.240Z,99.90
2019-03-23T02:15:11.310Z,99.90
2019-03-23T02:17:41.120Z,99.90
2019-03-23T02:20:11.066Z,99.90
2019-03-23T02:22:40.919Z,99.90
2019-03-23T02:25:10.934Z,99.90
2019-03-23T02:27:40.824Z,99.90
2019-03-23T02:30:11.586Z,99.90
2019-03-23T02:32:41.386Z,99.90
2019-03-23T02:35:11.245Z,99.90
2019-03-23T02:37:40.727Z,99.90
2019-03-23T02:40:10.379Z,99.90
2019-03-23T02:42:40.013Z,99.90
2019-03-23T02:45:10.402Z,99.90
2019-03-23T02:47:40.064Z,99.90
2019-03-23T02:50:10.965Z,99.90
2019-03-23T02:52:40.499Z,99.90
2019-03-23T02:55:10.454Z,99.90
2019-03-23T02:57:40.313Z,99.90
2019-03-23T03:00:11.313Z,99.90
2019-03-23T03:02:41.386Z,99.90
2019-03-23T03:05:11.053Z,99.90
2019-03-23T03:07:42.988Z,99.90
2019-03-23T03:10:12.578Z,99.90
2019-03-23T03:12:42.681Z,99.90
2019-03-23T03:15:12.827Z,99.90
2019-03-23T03:17:42.783Z,99.90
2019-03-23T03:20:12.430Z,99.90
2019-03-23T03:22:42.170Z,99.90
2019-03-23T03:25:11.895Z,99.90
2019-03-23T03:27:41.635Z,99.90
2019-03-23T03:30:12.211Z,99.90
2019-03-23T03:32:41.806Z,99.90
2019-03-23T03:35:11.810Z,99.90
2019-03-23T03:37:55.374Z,99.90
2019-03-23T03:40:12.836Z,99.90
2019-03-23T03:42:42.659Z,99.90
2019-03-23T03:45:16.575Z,99.90
2019-03-23T03:47:46.359Z,99.90
2019-03-23T03:50:15.761Z,99.90
2019-03-23T03:52:45.452Z,99.90
2019-03-23T03:55:15.093Z,99.90
2019-03-23T03:57:44.479Z,99.90
2019-03-23T04:00:15.748Z,99.90
2019-03-23T04:02:45.267Z,99.90
2019-03-23T04:05:14.908Z,99.90
2019-03-23T04:07:44.567Z,99.90
2019-03-23T04:10:14.247Z,99.90
2019-03-23T04:12:43.870Z,99.90
2019-03-23T04:15:13.407Z,99.90
2019-03-23T04:17:42.896Z,99.90
2019-03-23T04:20:12.905Z,99.90
2019-03-23T04:22:42.289Z,99.90
2019-03-23T04:25:12.101Z,99.90
2019-03-23T04:27:41.623Z,99.90
2019-03-23T04:30:11.707Z,99.90
2019-03-23T04:32:41.168Z,99.90
2019-03-23T04:35:10.724Z,99.90
2019-03-23T04:37:40.400Z,99.90
2019-03-23T04:40:10.559Z,99.90
2019-03-23T04:42:40.359Z,99.90
2019-03-23T04:45:10.930Z,99.90
2019-03-23T04:47:40.385Z,99.90
2019-03-23T04:50:10.214Z,99.90
2019-03-23T04:52:40.232Z,99.90
2019-03-23T04:55:10.896Z,99.90
2019-03-23T04:57:40.772Z,99.90
2019-03-23T05:00:11.946Z,99.90
2019-03-23T05:02:41.602Z,99.90
2019-03-23T05:05:11.473Z,99.90
2019-03-23T05:07:41.211Z,99.90
2019-03-23T05:10:11.035Z,99.90
2019-03-23T05:12:40.744Z,99.90
2019-03-23T05:15:11.660Z,99.90
2019-03-23T05:17:41.338Z,99.90
2019-03-23T05:20:11.340Z,99.90
2019-03-23T05:22:41.127Z,99.90
2019-03-23T05:25:22.811Z,99.90
2019-03-23T05:27:52.254Z,99.90
2019-03-23T05:30:22.239Z,99.90
2019-03-23T05:32:51.986Z,99.90
2019-03-23T05:35:21.703Z,99.90
2019-03-23T05:37:51.462Z,99.90
2019-03-23T05:40:20.942Z,99.90
2019-03-23T05:42:50.478Z,99.90
2019-03-23T05:45:20.177Z,99.90
2019-03-23T05:47:49.831Z,99.90
2019-03-23T05:50:19.594Z,99.90
2019-03-23T05:52:49.243Z,99.90
2019-03-23T05:55:18.644Z,99.90
2019-03-23T05:57:48.203Z,99.90
2019-03-23T06:00:19.704Z,99.90
2019-03-23T06:02:49.485Z,99.90
2019-03-23T06:05:19.103Z,99.90
2019-03-23T06:07:48.639Z,99.90
2019-03-23T06:10:18.187Z,99.90
2019-03-23T06:12:47.974Z,99.90
2019-03-23T06:15:17.634Z,99.90
2019-03-23T06:17:47.025Z,99.90
2019-03-23T06:20:16.861Z,99.90
2019-03-23T06:22:46.328Z,99.90
2019-03-23T06:25:15.746Z,99.90
2019-03-23T06:27:45.471Z,99.90
2019-03-23T06:30:15.015Z,99.90
2019-03-23T06:32:44.925Z,99.90
2019-03-23T06:35:14.403Z,99.90
2019-03-23T06:37:43.915Z,99.90
2019-03-23T06:40:14.042Z,99.90
2019-03-23T06:42:43.508Z,99.90
2019-03-23T06:45:13.235Z,99.90
2019-03-23T06:47:43.066Z,99.90
2019-03-23T06:50:13.548Z,99.90
2019-03-23T06:52:42.910Z,99.90
2019-03-23T06:55:12.808Z,99.90
2019-03-23T06:57:42.310Z,99.90
2019-03-23T07:00:12.322Z,99.90
2019-03-23T07:02:42.167Z,99.90
2019-03-23T07:05:11.894Z,99.90
2019-03-23T07:07:41.286Z,99.90
2019-03-23T07:10:11.182Z,99.90
2019-03-23T07:12:40.955Z,99.90
2019-03-23T07:15:19.931Z,99.90
2019-03-23T07:17:43.551Z,99.90
2019-03-23T07:20:13.754Z,99.90
2019-03-23T07:22:43.504Z,99.90
2019-03-23T07:25:13.489Z,99.90
2019-03-23T07:27:42.901Z,99.90
2019-03-23T07:30:13.978Z,99.90
2019-03-23T07:32:43.579Z,99.90
2019-03-23T07:35:13.451Z,99.90
2019-03-23T07:37:42.825Z,99.90
2019-03-23T07:40:12.764Z,99.90
2019-03-23T07:42:42.588Z,99.90
2019-03-23T07:45:13.782Z,99.90
2019-03-23T07:47:43.775Z,99.90
2019-03-23T07:50:13.454Z,99.90
2019-03-23T07:52:43.019Z,99.90
2019-03-23T07:55:13.847Z,99.90
2019-03-23T07:57:43.703Z,99.90
2019-03-23T08:00:15.810Z,99.90
2019-03-23T08:02:45.279Z,99.90
2019-03-23T08:05:14.818Z,99.90
2019-03-23T08:07:44.272Z,99.90
2019-03-23T08:10:30.271Z,99.90
2019-03-23T08:13:00.050Z,99.90
2019-03-23T08:15:29.609Z,99.90
2019-03-23T08:17:59.136Z,99.90
2019-03-23T08:20:28.722Z,99.90
2019-03-23T08:22:58.123Z,99.90
2019-03-23T08:25:27.514Z,99.90
2019-03-23T08:27:57.054Z,99.90
2019-03-23T08:30:26.471Z,99.90
2019-03-23T08:32:56.083Z,99.90
2019-03-23T08:35:25.806Z,99.90
2019-03-23T08:37:55.190Z,99.90
2019-03-23T08:40:24.971Z,99.90
2019-03-23T08:42:54.380Z,99.90
2019-03-23T08:45:23.814Z,99.90
2019-03-23T08:47:53.522Z,99.90
2019-03-23T08:50:22.915Z,99.90
2019-03-23T08:52:52.299Z,99.90
2019-03-23T08:55:22.116Z,99.90
2019-03-23T08:57:52.450Z,99.90
2019-03-23T09:00:21.831Z,99.90
2019-03-23T09:02:51.243Z,99.90
2019-03-23T09:05:20.642Z,99.90
2019-03-23T09:07:52.440Z,99.90
2019-03-23T09:10:21.203Z,99.90
2019-03-23T09:12:50.678Z,99.90
2019-03-23T09:15:20.184Z,99.90
2019-03-23T09:17:49.650Z,99.90
2019-03-23T09:20:19.351Z,99.50
2019-03-23T09:22:48.837Z,96.60
2019-03-23T09:25:18.587Z,95.40
2019-03-23T09:27:48.278Z,92.50
2019-03-23T09:30:17.839Z,92.20
2019-03-23T09:32:47.695Z,87.50
2019-03-23T09:35:17.466Z,85.60
2019-03-23T09:37:46.931Z,83.60
2019-03-23T09:40:16.728Z,76.20
2019-03-23T09:42:46.220Z,74.30
2019-03-23T09:45:15.601Z,71.70
2019-03-23T09:47:45.258Z,68.50
2019-03-23T09:50:15.399Z,66.50
2019-03-23T09:52:45.058Z,63.70
2019-03-23T09:55:14.881Z,64.60
2019-03-23T09:57:44.660Z,61.40
2019-03-23T10:00:14.270Z,58.60
2019-03-23T10:02:44.432Z,56.20
2019-03-23T10:05:13.970Z,55.70
2019-03-23T10:07:43.351Z,54.80
2019-03-23T10:10:21.197Z,54.50
2019-03-23T10:12:44.038Z,53.90
2019-03-23T10:15:13.615Z,53.30
2019-03-23T10:17:43.311Z,50.90
2019-03-23T10:20:13.038Z,50.40
2019-03-23T10:22:42.455Z,51.00
2019-03-23T10:25:12.529Z,50.70
2019-03-23T10:27:42.206Z,50.40
2019-03-23T10:30:11.888Z,49.90
2019-03-23T10:32:41.346Z,47.70
2019-03-23T10:35:10.859Z,48.10
2019-03-23T10:37:40.741Z,47.40
2019-03-23T10:40:10.793Z,47.00
2019-03-23T10:42:40.344Z,46.40
2019-03-23T10:45:10.656Z,47.80
2019-03-23T10:47:40.208Z,45.10
2019-03-23T10:50:09.935Z,46.90
2019-03-23T10:52:39.343Z,46.00
2019-03-23T10:55:09.082Z,45.90
2019-03-23T10:57:38.585Z,45.90
2019-03-23T11:00:09.463Z,45.00
2019-03-23T11:02:38.974Z,45.20
2019-03-23T11:05:09.024Z,45.80
2019-03-23T11:07:38.607Z,45.50
2019-03-23T11:10:08.571Z,44.40
2019-03-23T11:12:37.978Z,43.80
2019-03-23T11:15:08.055Z,44.60
2019-03-23T11:17:37.950Z,44.80
2019-03-23T11:20:09.223Z,45.30
2019-03-23T11:22:38.763Z,45.90
2019-03-23T11:25:09.089Z,44.90
2019-03-23T11:27:39.766Z,44.10
2019-03-23T11:30:09.881Z,44.00
2019-03-23T11:32:40.040Z,44.50
2019-03-23T11:35:09.844Z,42.80
2019-03-23T11:37:53.564Z,43.90
2019-03-23T11:40:31.616Z,44.30
2019-03-23T11:43:01.990Z,44.00
2019-03-23T11:45:31.535Z,43.30
2019-03-23T11:48:01.435Z,43.20
2019-03-23T11:50:31.737Z,44.90
2019-03-23T11:53:01.406Z,43.80
2019-03-23T11:55:30.923Z,42.50
2019-03-23T11:58:00.750Z,40.10
2019-03-23T12:00:32.362Z,41.60
2019-03-23T12:03:02.659Z,42.50
2019-03-23T12:05:35.744Z,39.70
2019-03-23T12:08:06.820Z,38.80
2019-03-23T12:10:39.961Z,39.90
2019-03-23T12:13:14.271Z,40.60
2019-03-23T12:15:47.516Z,40.00
2019-03-23T12:18:18.220Z,39.80
2019-03-23T12:20:51.045Z,39.30
2019-03-23T12:23:23.766Z,41.20
2019-03-23T12:25:54.146Z,39.70
2019-03-23T12:28:46.940Z,38.20
2019-03-23T12:31:17.060Z,37.90
2019-03-23T12:33:46.947Z,38.90
2019-03-23T12:36:16.788Z,39.30
2019-03-23T12:38:46.959Z,40.00
2019-03-23T12:41:22.975Z,39.80
2019-03-23T12:43:48.634Z,38.40
2019-03-23T12:46:18.239Z,36.40
2019-03-23T12:48:47.886Z,37.90
2019-03-23T12:51:17.602Z,38.40
2019-03-23T12:53:47.260Z,39.20
2019-03-23T12:56:16.984Z,38.40
2019-03-23T12:58:46.656Z,39.60
2019-03-23T13:01:17.355Z,36.90
2019-03-23T13:03:46.748Z,35.70
2019-03-23T13:06:16.219Z,36.80
2019-03-23T13:08:45.622Z,36.20
2019-03-23T13:11:23.108Z,36.90
2019-03-23T13:13:47.138Z,38.20
2019-03-23T13:16:16.764Z,37.40
2019-03-23T13:18:46.675Z,38.00
2019-03-23T13:21:16.711Z,38.70
2019-03-23T13:23:48.216Z,39.10
2019-03-23T13:26:18.508Z,39.60
2019-03-23T13:28:48.504Z,38.10
2019-03-23T13:31:17.999Z,38.20
2019-03-23T13:33:47.894Z,39.50
2019-03-23T13:36:18.703Z,40.20
2019-03-23T13:38:48.448Z,39.10
2019-03-23T13:41:20.674Z,40.00
2019-03-23T13:43:50.487Z,40.90
2019-03-23T13:46:20.592Z,40.80
2019-03-23T13:48:50.741Z,40.40
2019-03-23T13:51:20.587Z,39.30
2019-03-23T13:53:50.319Z,38.80
2019-03-23T13:56:20.278Z,38.60
2019-03-23T13:58:49.731Z,38.50
2019-03-23T14:01:19.204Z,38.70
2019-03-23T14:03:48.951Z,38.30
2019-03-23T14:06:18.720Z,39.50
2019-03-23T14:08:48.436Z,39.30
2019-03-23T14:11:18.511Z,39.40
2019-03-23T14:13:48.027Z,39.60
2019-03-23T14:16:17.823Z,38.90
2019-03-23T14:18:47.284Z,38.60
2019-03-23T14:21:17.119Z,38.30
2019-03-23T14:23:47.183Z,38.30
2019-03-23T14:26:17.419Z,38.60
2019-03-23T14:28:47.175Z,38.50
2019-03-23T14:31:16.615Z,37.40
2019-03-23T14:33:46.611Z,37.90
2019-03-23T14:36:16.257Z,38.50
2019-03-23T14:38:45.895Z,38.60
2019-03-23T14:41:15.536Z,38.20
2019-03-23T14:43:45.348Z,40.60
2019-03-23T14:46:15.490Z,37.80
2019-03-23T14:48:45.233Z,40.70
2019-03-23T14:51:14.939Z,40.30
2019-03-23T14:53:44.328Z,39.30
2019-03-23T14:56:14.335Z,38.90
2019-03-23T14:58:43.965Z,41.10
2019-03-23T15:01:13.692Z,41.60
2019-03-23T15:03:43.142Z,40.70
2019-03-23T15:06:12.837Z,40.10
2019-03-23T15:08:42.633Z,40.00
2019-03-23T15:11:12.431Z,40.10
2019-03-23T15:13:42.079Z,41.00
2019-03-23T15:16:11.743Z,40.90
2019-03-23T15:18:41.392Z,40.90
2019-03-23T15:21:11.106Z,40.70
2019-03-23T15:23:41.160Z,39.40
2019-03-23T15:26:10.561Z,40.30
2019-03-23T15:28:40.551Z,40.30
2019-03-23T15:31:10.289Z,40.60
2019-03-23T15:33:40.430Z,41.50
2019-03-23T15:36:09.840Z,40.60
2019-03-23T15:38:40.163Z,41.00
2019-03-23T15:41:11.471Z,41.80
2019-03-23T15:43:41.327Z,42.00
2019-03-23T15:46:10.999Z,42.70
2019-03-23T15:48:40.795Z,42.80
2019-03-23T15:51:10.454Z,42.60
2019-03-23T15:53:40.750Z,42.90
2019-03-23T15:56:10.442Z,43.20
2019-03-23T15:58:40.651Z,43.40
2019-03-23T16:01:10.207Z,42.70
2019-03-23T16:03:39.895Z,43.20
2019-03-23T16:06:09.358Z,43.40
2019-03-23T16:08:38.759Z,44.10
2019-03-23T16:11:08.464Z,45.50
2019-03-23T16:13:37.863Z,45.50
2019-03-23T16:16:07.327Z,45.50
2019-03-23T16:18:36.987Z,46.00
2019-03-23T16:21:06.475Z,45.80
2019-03-23T16:23:36.014Z,46.10
2019-03-23T16:26:05.998Z,46.50
2019-03-23T16:28:35.555Z,47.40
2019-03-23T16:31:05.353Z,47.60
2019-03-23T16:33:35.352Z,47.80
2019-03-23T16:36:05.529Z,48.40
2019-03-23T16:38:35.127Z,48.60
2019-03-23T16:41:04.884Z,49.10
2019-03-23T16:43:34.540Z,49.40
2019-03-23T16:46:04.652Z,49.90
2019-03-23T16:48:34.312Z,49.80
2019-03-23T16:51:04.124Z,50.30
2019-03-23T16:53:34.112Z,50.20
2019-03-23T16:56:04.263Z,50.60
2019-03-23T16:58:38.636Z,51.00
2019-03-23T17:01:13.304Z,51.40
2019-03-23T17:03:42.703Z,51.60
2019-03-23T17:06:12.943Z,52.00
2019-03-23T17:08:42.614Z,52.20
2019-03-23T17:11:11.961Z,52.50
2019-03-23T17:13:41.329Z,52.90
2019-03-23T17:16:10.688Z,53.50
2019-03-23T17:18:40.058Z,53.60
2019-03-23T17:21:09.672Z,54.30
2019-03-23T17:23:39.325Z,55.10
2019-03-23T17:26:08.724Z,55.90
2019-03-23T17:28:38.429Z,56.50
2019-03-23T17:31:08.049Z,57.00
2019-03-23T17:33:37.746Z,57.70
2019-03-23T17:36:07.165Z,58.70
2019-03-23T17:38:40.844Z,59.60
2019-03-23T17:41:13.807Z,61.30
2019-03-23T17:43:43.691Z,62.60
2019-03-23T17:46:13.202Z,63.10
2019-03-23T17:48:43.017Z,65.50
2019-03-23T17:51:12.505Z,68.60
2019-03-23T17:53:42.219Z,71.70
2019-03-23T17:56:12.105Z,75.70
2019-03-23T17:58:41.521Z,79.50
2019-03-23T18:01:19.250Z,84.40
2019-03-23T18:03:45.109Z,90.00
2019-03-23T18:06:14.476Z,92.20
2019-03-23T18:08:44.169Z,93.80
2019-03-23T18:11:13.904Z,94.90
2019-03-23T18:13:43.575Z,95.90
2019-03-23T18:16:13.298Z,96.80
2019-03-23T18:18:42.743Z,97.90
2019-03-23T18:21:12.151Z,98.50
2019-03-23T18:23:41.591Z,99.80
2019-03-23T18:26:11.640Z,99.90
2019-03-23T18:28:41.624Z,99.90
2019-03-23T18:31:11.297Z,99.90
2019-03-23T18:33:40.733Z,99.90
2019-03-23T18:36:10.529Z,99.90
2019-03-23T18:38:39.894Z,99.90
2019-03-23T18:41:09.646Z,99.90
2019-03-23T18:43:39.062Z,99.90
2019-03-23T18:46:08.599Z,99.90
2019-03-23T18:48:38.848Z,99.90
2019-03-23T18:51:08.572Z,99.90
2019-03-23T18:53:38.078Z,99.90
2019-03-23T18:56:08.052Z,99.90
2019-03-23T18:58:37.448Z,99.90
2019-03-23T19:01:06.933Z,99.90
2019-03-23T19:03:36.572Z,99.90
2019-03-23T19:06:06.424Z,99.90
2019-03-23T19:08:36.323Z,99.90
2019-03-23T19:11:05.948Z,99.90
2019-03-23T19:13:38.076Z,99.90
2019-03-23T19:16:06.980Z,99.90
2019-03-23T19:18:36.476Z,99.90
2019-03-23T19:21:05.991Z,99.90
2019-03-23T19:23:44.350Z,99.90
2019-03-23T19:26:13.881Z,99.90
2019-03-23T19:28:43.255Z,99.90
2019-03-23T19:31:14.144Z,99.90
2019-03-23T19:33:43.838Z,99.90
2019-03-23T19:36:13.268Z,99.90
2019-03-23T19:38:42.963Z,99.90
2019-03-23T19:41:12.599Z,99.90
2019-03-23T19:43:48.849Z,99.90
2019-03-23T19:46:14.401Z,99.90
2019-03-23T19:48:43.912Z,99.90
2019-03-23T19:51:16.720Z,99.90
2019-03-23T19:53:46.126Z,99.90
2019-03-23T19:56:16.025Z,99.90
2019-03-23T19:58:46.043Z,99.90
2019-03-23T20:01:17.158Z,99.90
2019-03-23T20:03:47.118Z,99.90
2019-03-23T20:06:16.596Z,99.90
2019-03-23T20:08:46.489Z,99.90
2019-03-23T20:11:16.013Z,99.90
2019-03-23T20:13:46.179Z,99.90
2019-03-23T20:16:15.662Z,99.90
2019-03-23T20:18:45.026Z,99.90
2019-03-23T20:21:14.677Z,99.90
2019-03-23T20:23:44.309Z,99.90
2019-03-23T20:26:14.055Z,99.90
2019-03-23T20:28:43.426Z,99.90
2019-03-23T20:31:13.091Z,99.90
2019-03-23T20:33:42.699Z,99.90
2019-03-23T20:36:12.105Z,99.90
2019-03-23T20:38:41.478Z,99.90
2019-03-23T20:41:10.918Z,99.90
2019-03-23T20:43:40.302Z,99.90
2019-03-23T20:46:09.802Z,99.90
2019-03-23T20:48:40.138Z,99.90
2019-03-23T20:51:10.774Z,99.90
2019-03-23T20:53:40.732Z,99.90
2019-03-23T20:56:10.317Z,99.90
2019-03-23T20:58:40.037Z,99.90
2019-03-23T21:01:10.647Z,99.90
2019-03-23T21:03:40.347Z,99.90
2019-03-23T21:06:12.466Z,99.90
2019-03-23T21:08:41.722Z,99.90
2019-03-23T21:11:11.191Z,99.90
2019-03-23T21:13:40.583Z,99.90
2019-03-23T21:16:10.065Z,99.90
2019-03-23T21:18:39.786Z,99.90
2019-03-23T21:21:09.318Z,99.90
2019-03-23T21:23:38.947Z,99.90
2019-03-23T21:26:08.611Z,99.90
2019-03-23T21:28:37.991Z,99.90
2019-03-23T21:31:07.772Z,99.90
2019-03-23T21:33:39.040Z,99.90
2019-03-23T21:36:08.929Z,99.90
2019-03-23T21:38:38.940Z,99.90
2019-03-23T21:41:08.471Z,99.90
2019-03-23T21:43:37.844Z,99.90
2019-03-23T21:46:07.700Z,99.90
2019-03-23T21:48:37.076Z,99.90
2019-03-23T21:51:06.557Z,99.90
2019-03-23T21:53:35.987Z,99.90
2019-03-23T21:56:05.584Z,99.90
2019-03-23T21:58:35.434Z,99.90
2019-03-23T22:01:05.243Z,99.90
2019-03-23T22:03:34.766Z,99.90
2019-03-23T22:06:04.623Z,99.90
2019-03-23T22:08:34.115Z,99.90
2019-03-23T22:11:03.590Z,99.90
2019-03-23T22:13:33.046Z,99.90
2019-03-23T22:16:05.014Z,99.90
2019-03-23T22:18:33.869Z,99.90
2019-03-23T22:21:03.410Z,99.90
2019-03-23T22:23:32.803Z,99.90
2019-03-23T22:26:02.395Z,99.90
2019-03-23T22:28:32.075Z,99.90
2019-03-23T22:31:01.570Z,99.90
2019-03-23T22:33:31.362Z,99.90
2019-03-23T22:36:01.068Z,99.90
2019-03-23T22:38:30.450Z,99.90
2019-03-23T22:41:02.670Z,99.90
2019-03-23T22:43:32.538Z,99.90
2019-03-23T22:46:02.271Z,99.90
2019-03-23T22:48:31.642Z,99.90
2019-03-23T22:51:01.034Z,99.90
2019-03-23T22:53:30.732Z,99.90
2019-03-23T22:56:00.716Z,99.90
2019-03-23T22:58:30.360Z,99.90
2019-03-23T23:01:00.274Z,99.90
2019-03-23T23:03:30.062Z,99.90
2019-03-23T23:06:00.059Z,99.90
2019-03-23T23:08:29.494Z,99.90
2019-03-23T23:10:59.191Z,99.90
2019-03-23T23:13:29.216Z,99.90
2019-03-23T23:15:59.023Z,99.90
2019-03-23T23:18:28.694Z,99.90
2019-03-23T23:20:58.411Z,99.90
2019-03-23T23:23:28.042Z,99.90
2019-03-23T23:25:58.774Z,99.90
2019-03-23T23:28:28.246Z,99.90
2019-03-23T23:30:57.877Z,99.90
2019-03-23T23:33:28.035Z,99.90
2019-03-23T23:35:58.962Z,99.90
2019-03-23T23:38:28.615Z,99.90
2019-03-23T23:40:58.023Z,99.90
2019-03-23T23:43:27.669Z,99.90
2019-03-23T23:45:57.691Z,99.90
2019-03-23T23:48:27.411Z,99.90
2019-03-23T23:50:57.186Z,99.90
2019-03-23T23:53:26.957Z,99.90
2019-03-23T23:55:56.364Z,99.90
2019-03-23T23:58:26.010Z,99.90
